sensor_id;sensor_type;location;lat;lon;timestamp;pressure;altitude;pressure_sealevel;temperature;humidity
59531;BME280;45349;48.692;8.186;2024-01-25T00:01:22;148632.97;;;9.94;94.42
59531;BME280;45349;48.692;8.186;2024-01-25T00:03:51;148642.94;;;9.98;92.96
59531;BME280;45349;48.692;8.186;2024-01-25T00:06:17;148646.66;;;10.00;92.96
59531;BME280;45349;48.692;8.186;2024-01-25T00:08:45;148676.53;;;10.12;91.12
59531;BME280;45349;48.692;8.186;2024-01-25T00:11:12;148681.53;;;10.14;91.94
59531;BME280;45349;48.692;8.186;2024-01-25T00:13:38;148696.47;;;10.21;91.34
59531;BME280;45349;48.692;8.186;2024-01-25T00:16:14;148693.97;;;10.19;91.12
59531;BME280;45349;48.692;8.186;2024-01-25T00:18:41;148693.97;;;10.19;92.15
59531;BME280;45349;48.692;8.186;2024-01-25T00:21:09;148692.69;;;10.19;92.17
59531;BME280;45349;48.692;8.186;2024-01-25T00:23:35;148691.47;;;10.18;92.91
59531;BME280;45349;48.692;8.186;2024-01-25T00:26:03;148692.69;;;10.19;93.01
59531;BME280;45349;48.692;8.186;2024-01-25T00:28:30;148686.50;;;10.16;92.99
59531;BME280;45349;48.692;8.186;2024-01-25T00:30:58;148695.19;;;10.20;93.74
59531;BME280;45349;48.692;8.186;2024-01-25T00:33:27;148707.66;;;10.25;93.42
59531;BME280;45349;48.692;8.186;2024-01-25T00:35:54;148707.66;;;10.25;94.02
59531;BME280;45349;48.692;8.186;2024-01-25T00:38:23;148698.94;;;10.22;95.14
59531;BME280;45349;48.692;8.186;2024-01-25T00:40:50;148691.47;;;10.18;94.37
59531;BME280;45349;48.692;8.186;2024-01-25T00:43:17;148696.47;;;10.21;94.12
59531;BME280;45349;48.692;8.186;2024-01-25T00:45:44;148696.47;;;10.21;95.50
59531;BME280;45349;48.692;8.186;2024-01-25T00:48:12;148692.69;;;10.19;95.90
59531;BME280;45349;48.692;8.186;2024-01-25T00:50:39;148693.97;;;10.19;95.75
59531;BME280;45349;48.692;8.186;2024-01-25T00:53:06;148685.22;;;10.16;96.41
59531;BME280;45349;48.692;8.186;2024-01-25T00:55:35;148676.53;;;10.12;96.83
59531;BME280;45349;48.692;8.186;2024-01-25T00:58:01;148657.88;;;10.04;98.35
59531;BME280;45349;48.692;8.186;2024-01-25T01:00:28;148654.13;;;10.03;98.51
59531;BME280;45349;48.692;8.186;2024-01-25T01:02:57;148649.16;;;10.01;98.83
59531;BME280;45349;48.692;8.186;2024-01-25T01:05:24;148644.16;;;9.99;99.26
59531;BME280;45349;48.692;8.186;2024-01-25T01:07:52;148641.69;;;9.98;99.72
59531;BME280;45349;48.692;8.186;2024-01-25T01:10:19;148649.16;;;10.01;99.48
59531;BME280;45349;48.692;8.186;2024-01-25T01:12:47;148652.91;;;10.02;99.70
59531;BME280;45349;48.692;8.186;2024-01-25T01:15:13;148649.16;;;10.01;100.00
59531;BME280;45349;48.692;8.186;2024-01-25T01:17:40;148645.44;;;9.99;100.00
59531;BME280;45349;48.692;8.186;2024-01-25T01:20:07;148634.22;;;9.95;100.00
59531;BME280;45349;48.692;8.186;2024-01-25T01:22:34;148636.69;;;9.96;100.00
59531;BME280;45349;48.692;8.186;2024-01-25T01:25:00;148630.50;;;9.93;100.00
59531;BME280;45349;48.692;8.186;2024-01-25T01:27:27;148620.53;;;9.89;100.00
59531;BME280;45349;48.692;8.186;2024-01-25T01:29:55;148634.22;;;9.95;100.00
59531;BME280;45349;48.692;8.186;2024-01-25T01:32:22;148626.72;;;9.92;100.00
59531;BME280;45349;48.692;8.186;2024-01-25T01:34:48;148621.75;;;9.89;100.00
59531;BME280;45349;48.692;8.186;2024-01-25T01:37:15;148613.06;;;9.86;100.00
59531;BME280;45349;48.692;8.186;2024-01-25T01:39:41;148608.09;;;9.84;100.00
59531;BME280;45349;48.692;8.186;2024-01-25T01:42:08;148610.56;;;9.85;100.00
59531;BME280;45349;48.692;8.186;2024-01-25T01:44:34;148603.09;;;9.82;100.00
59531;BME280;45349;48.692;8.186;2024-01-25T01:47:03;148619.25;;;9.88;100.00
59531;BME280;45349;48.692;8.186;2024-01-25T01:49:30;148600.63;;;9.81;100.00
59531;BME280;45349;48.692;8.186;2024-01-25T01:51:57;148589.38;;;9.76;100.00
59531;BME280;45349;48.692;8.186;2024-01-25T01:54:24;148594.38;;;9.78;100.00
59531;BME280;45349;48.692;8.186;2024-01-25T01:56:51;148605.59;;;9.83;100.00
59531;BME280;45349;48.692;8.186;2024-01-25T01:59:18;148601.84;;;9.81;100.00
59531;BME280;45349;48.692;8.186;2024-01-25T02:01:46;148591.88;;;9.77;100.00
59531;BME280;45349;48.692;8.186;2024-01-25T02:04:14;148590.66;;;9.77;100.00
59531;BME280;45349;48.692;8.186;2024-01-25T02:06:42;148585.66;;;9.74;100.00
59531;BME280;45349;48.692;8.186;2024-01-25T02:09:09;148574.44;;;9.70;100.00
59531;BME280;45349;48.692;8.186;2024-01-25T02:11:35;148565.75;;;9.66;100.00
59531;BME280;45349;48.692;8.186;2024-01-25T02:14:02;148562.00;;;9.65;100.00
59531;BME280;45349;48.692;8.186;2024-01-25T02:16:29;148557.03;;;9.63;100.00
59531;BME280;45349;48.692;8.186;2024-01-25T02:18:55;148545.84;;;9.58;100.00
59531;BME280;45349;48.692;8.186;2024-01-25T02:21:24;148528.41;;;9.51;100.00
59531;BME280;45349;48.692;8.186;2024-01-25T02:23:52;148519.72;;;9.47;100.00
59531;BME280;45349;48.692;8.186;2024-01-25T02:26:18;148496.06;;;9.37;100.00
59531;BME280;45349;48.692;8.186;2024-01-25T02:28:45;148497.31;;;9.38;100.00
59531;BME280;45349;48.692;8.186;2024-01-25T02:31:12;148456.22;;;9.21;100.00
59531;BME280;45349;48.692;8.186;2024-01-25T02:33:38;148435.09;;;9.12;100.00
59531;BME280;45349;48.692;8.186;2024-01-25T02:36:05;148420.16;;;9.06;100.00
59531;BME280;45349;48.692;8.186;2024-01-25T02:38:32;148384.09;;;8.91;100.00
59531;BME280;45349;48.692;8.186;2024-01-25T02:41:00;148361.72;;;8.81;100.00
59531;BME280;45349;48.692;8.186;2024-01-25T02:43:28;148352.97;;;8.78;100.00
59531;BME280;45349;48.692;8.186;2024-01-25T02:45:55;148321.91;;;8.65;100.00
59531;BME280;45349;48.692;8.186;2024-01-25T02:48:21;148338.06;;;8.71;100.00
59531;BME280;45349;48.692;8.186;2024-01-25T02:50:48;148315.66;;;8.62;100.00
59531;BME280;45349;48.692;8.186;2024-01-25T02:53:14;148310.69;;;8.60;100.00
59531;BME280;45349;48.692;8.186;2024-01-25T02:55:41;148297.03;;;8.54;100.00
59531;BME280;45349;48.692;8.186;2024-01-25T02:58:09;148294.53;;;8.53;100.00
59531;BME280;45349;48.692;8.186;2024-01-25T03:00:36;148292.06;;;8.52;100.00
59531;BME280;45349;48.692;8.186;2024-01-25T03:03:02;148290.78;;;8.52;100.00
59531;BME280;45349;48.692;8.186;2024-01-25T03:05:29;148284.59;;;8.49;100.00
59531;BME280;45349;48.692;8.186;2024-01-25T03:07:56;148282.06;;;8.48;100.00
59531;BME280;45349;48.692;8.186;2024-01-25T03:10:23;148283.31;;;8.49;100.00
59531;BME280;45349;48.692;8.186;2024-01-25T03:12:49;148280.84;;;8.48;100.00
59531;BME280;45349;48.692;8.186;2024-01-25T03:15:17;148279.56;;;8.47;100.00
59531;BME280;45349;48.692;8.186;2024-01-25T03:17:44;148283.31;;;8.49;100.00
59531;BME280;45349;48.692;8.186;2024-01-25T03:20:11;148287.06;;;8.50;100.00
59531;BME280;45349;48.692;8.186;2024-01-25T03:22:37;148288.28;;;8.51;100.00
59531;BME280;45349;48.692;8.186;2024-01-25T03:25:04;148283.31;;;8.49;100.00
59531;BME280;45349;48.692;8.186;2024-01-25T03:27:31;148278.34;;;8.47;100.00
59531;BME280;45349;48.692;8.186;2024-01-25T03:29:58;148287.06;;;8.50;100.00
59531;BME280;45349;48.692;8.186;2024-01-25T03:32:26;148280.84;;;8.48;100.00
59531;BME280;45349;48.692;8.186;2024-01-25T03:34:52;148279.56;;;8.47;100.00
59531;BME280;45349;48.692;8.186;2024-01-25T03:37:19;148277.06;;;8.46;100.00
59531;BME280;45349;48.692;8.186;2024-01-25T03:39:45;148280.84;;;8.48;100.00
59531;BME280;45349;48.692;8.186;2024-01-25T03:42:12;148279.56;;;8.47;100.00
59531;BME280;45349;48.692;8.186;2024-01-25T03:44:39;148278.34;;;8.47;100.00
59531;BME280;45349;48.692;8.186;2024-01-25T03:47:07;148278.34;;;8.47;100.00
59531;BME280;45349;48.692;8.186;2024-01-25T03:49:35;148278.34;;;8.47;100.00
59531;BME280;45349;48.692;8.186;2024-01-25T03:52:02;148279.56;;;8.47;100.00
59531;BME280;45349;48.692;8.186;2024-01-25T03:54:29;148273.38;;;8.45;100.00
59531;BME280;45349;48.692;8.186;2024-01-25T03:56:55;148268.41;;;8.42;100.00
59531;BME280;45349;48.692;8.186;2024-01-25T03:59:22;148262.16;;;8.40;100.00
59531;BME280;45349;48.692;8.186;2024-01-25T04:01:49;148248.50;;;8.34;100.00
59531;BME280;45349;48.692;8.186;2024-01-25T04:04:15;148257.19;;;8.38;100.00
59531;BME280;45349;48.692;8.186;2024-01-25T04:06:44;148254.69;;;8.37;100.00
59531;BME280;45349;48.692;8.186;2024-01-25T04:09:12;148248.50;;;8.34;100.00
59531;BME280;45349;48.692;8.186;2024-01-25T04:11:40;148243.53;;;8.32;100.00
59531;BME280;45349;48.692;8.186;2024-01-25T04:14:07;148236.06;;;8.29;100.00
59531;BME280;45349;48.692;8.186;2024-01-25T04:16:34;148260.94;;;8.39;100.00
59531;BME280;45349;48.692;8.186;2024-01-25T04:19:00;148255.97;;;8.37;100.00
59531;BME280;45349;48.692;8.186;2024-01-25T04:21:27;148257.19;;;8.38;100.00
59531;BME280;45349;48.692;8.186;2024-01-25T04:23:55;148258.44;;;8.38;100.00
59531;BME280;45349;48.692;8.186;2024-01-25T04:26:22;148255.97;;;8.37;100.00
59531;BME280;45349;48.692;8.186;2024-01-25T04:28:49;148248.50;;;8.34;100.00
59531;BME280;45349;48.692;8.186;2024-01-25T04:31:15;148244.75;;;8.33;100.00
59531;BME280;45349;48.692;8.186;2024-01-25T04:33:42;148244.75;;;8.33;100.00
59531;BME280;45349;48.692;8.186;2024-01-25T04:36:09;148244.75;;;8.33;100.00
59531;BME280;45349;48.692;8.186;2024-01-25T04:38:35;148246.00;;;8.33;100.00
59531;BME280;45349;48.692;8.186;2024-01-25T04:41:03;148237.28;;;8.30;100.00
59531;BME280;45349;48.692;8.186;2024-01-25T04:43:34;148241.03;;;8.31;100.00
59531;BME280;45349;48.692;8.186;2024-01-25T04:46:01;148232.31;;;8.27;100.00
59531;BME280;45349;48.692;8.186;2024-01-25T04:48:28;148226.09;;;8.25;100.00
59531;BME280;45349;48.692;8.186;2024-01-25T04:50:56;148228.59;;;8.26;100.00
59531;BME280;45349;48.692;8.186;2024-01-25T04:53:22;148231.09;;;8.27;100.00
59531;BME280;45349;48.692;8.186;2024-01-25T04:55:53;148232.31;;;8.27;100.00
59531;BME280;45349;48.692;8.186;2024-01-25T04:58:21;148234.78;;;8.28;100.00
59531;BME280;45349;48.692;8.186;2024-01-25T05:00:48;148228.59;;;8.26;100.00
59531;BME280;45349;48.692;8.186;2024-01-25T05:03:16;148221.13;;;8.23;100.00
59531;BME280;45349;48.692;8.186;2024-01-25T05:05:42;148217.38;;;8.21;100.00
59531;BME280;45349;48.692;8.186;2024-01-25T05:08:09;148206.22;;;8.17;100.00
59531;BME280;45349;48.692;8.186;2024-01-25T05:10:35;148211.19;;;8.19;100.00
59531;BME280;45349;48.692;8.186;2024-01-25T05:13:02;148211.19;;;8.19;100.00
59531;BME280;45349;48.692;8.186;2024-01-25T05:15:30;148197.47;;;8.13;100.00
59531;BME280;45349;48.692;8.186;2024-01-25T05:17:57;148204.94;;;8.16;100.00
59531;BME280;45349;48.692;8.186;2024-01-25T05:20:23;148198.75;;;8.13;100.00
59531;BME280;45349;48.692;8.186;2024-01-25T05:22:57;148191.28;;;8.10;100.00
59531;BME280;45349;48.692;8.186;2024-01-25T05:25:23;148187.53;;;8.09;100.00
59531;BME280;45349;48.692;8.186;2024-01-25T05:27:51;148193.78;;;8.11;100.00
59531;BME280;45349;48.692;8.186;2024-01-25T05:30:18;148188.81;;;8.09;100.00
59531;BME280;45349;48.692;8.186;2024-01-25T05:32:46;148186.31;;;8.08;100.00
59531;BME280;45349;48.692;8.186;2024-01-25T05:35:14;148183.81;;;8.07;100.00
59531;BME280;45349;48.692;8.186;2024-01-25T05:37:40;148178.84;;;8.05;100.00
59531;BME280;45349;48.692;8.186;2024-01-25T05:40:08;148185.03;;;8.08;100.00
59531;BME280;45349;48.692;8.186;2024-01-25T05:42:35;148180.06;;;8.06;100.00
59531;BME280;45349;48.692;8.186;2024-01-25T05:45:02;148182.56;;;8.07;100.00
59531;BME280;45349;48.692;8.186;2024-01-25T05:47:29;148180.06;;;8.06;100.00
59531;BME280;45349;48.692;8.186;2024-01-25T05:49:57;148162.66;;;7.98;100.00
59531;BME280;45349;48.692;8.186;2024-01-25T05:52:24;148156.47;;;7.96;100.00
59531;BME280;45349;48.692;8.186;2024-01-25T05:54:50;148152.75;;;7.94;100.00
59531;BME280;45349;48.692;8.186;2024-01-25T05:57:17;148141.56;;;7.90;100.00
59531;BME280;45349;48.692;8.186;2024-01-25T05:59:44;148127.91;;;7.84;100.00
59531;BME280;45349;48.692;8.186;2024-01-25T06:02:11;148121.66;;;7.81;100.00
59531;BME280;45349;48.692;8.186;2024-01-25T06:04:38;148120.44;;;7.81;100.00
59531;BME280;45349;48.692;8.186;2024-01-25T06:07:06;148105.53;;;7.75;100.00
59531;BME280;45349;48.692;8.186;2024-01-25T06:09:33;148105.53;;;7.75;100.00
59531;BME280;45349;48.692;8.186;2024-01-25T06:11:59;148106.75;;;7.75;100.00
59531;BME280;45349;48.692;8.186;2024-01-25T06:14:26;148089.34;;;7.68;100.00
59531;BME280;45349;48.692;8.186;2024-01-25T06:16:53;148079.38;;;7.64;100.00
59531;BME280;45349;48.692;8.186;2024-01-25T06:19:20;148074.41;;;7.62;100.00
59531;BME280;45349;48.692;8.186;2024-01-25T06:21:46;148059.50;;;7.56;100.00
59531;BME280;45349;48.692;8.186;2024-01-25T06:24:14;148054.53;;;7.53;100.00
59531;BME280;45349;48.692;8.186;2024-01-25T06:26:41;148044.59;;;7.49;100.00
59531;BME280;45349;48.692;8.186;2024-01-25T06:29:08;148035.91;;;7.46;100.00
59531;BME280;45349;48.692;8.186;2024-01-25T06:31:41;148032.16;;;7.44;100.00
59531;BME280;45349;48.692;8.186;2024-01-25T06:34:08;148021.00;;;7.39;100.00
59531;BME280;45349;48.692;8.186;2024-01-25T06:36:34;148012.31;;;7.36;100.00
59531;BME280;45349;48.692;8.186;2024-01-25T06:39:01;147997.41;;;7.30;100.00
59531;BME280;45349;48.692;8.186;2024-01-25T06:41:30;147999.88;;;7.31;100.00
59531;BME280;45349;48.692;8.186;2024-01-25T06:43:56;148008.56;;;7.34;100.00
59531;BME280;45349;48.692;8.186;2024-01-25T06:46:23;148012.31;;;7.36;100.00
59531;BME280;45349;48.692;8.186;2024-01-25T06:48:50;148022.25;;;7.40;100.00
59531;BME280;45349;48.692;8.186;2024-01-25T06:51:17;148029.66;;;7.43;100.00
59531;BME280;45349;48.692;8.186;2024-01-25T06:53:43;148039.63;;;7.47;100.00
59531;BME280;45349;48.692;8.186;2024-01-25T06:56:10;148043.38;;;7.49;100.00
59531;BME280;45349;48.692;8.186;2024-01-25T06:58:38;148045.84;;;7.50;100.00
59531;BME280;45349;48.692;8.186;2024-01-25T07:01:05;148050.81;;;7.52;100.00
59531;BME280;45349;48.692;8.186;2024-01-25T07:03:31;148057.00;;;7.54;100.00
59531;BME280;45349;48.692;8.186;2024-01-25T07:05:58;148055.78;;;7.54;100.00
59531;BME280;45349;48.692;8.186;2024-01-25T07:08:28;148052.03;;;7.52;100.00
59531;BME280;45349;48.692;8.186;2024-01-25T07:10:54;148034.63;;;7.45;100.00
59531;BME280;45349;48.692;8.186;2024-01-25T07:13:21;148025.97;;;7.42;100.00
59531;BME280;45349;48.692;8.186;2024-01-25T07:15:49;148002.38;;;7.32;100.00
59531;BME280;45349;48.692;8.186;2024-01-25T07:18:16;147998.63;;;7.30;100.00
59531;BME280;45349;48.692;8.186;2024-01-25T07:20:43;148007.34;;;7.34;100.00
59531;BME280;45349;48.692;8.186;2024-01-25T07:23:10;148011.06;;;7.35;100.00
59531;BME280;45349;48.692;8.186;2024-01-25T07:25:36;148017.28;;;7.38;100.00
59531;BME280;45349;48.692;8.186;2024-01-25T07:28:03;148016.03;;;7.37;100.00
59531;BME280;45349;48.692;8.186;2024-01-25T07:30:30;148030.94;;;7.44;100.00
59531;BME280;45349;48.692;8.186;2024-01-25T07:32:58;148042.09;;;7.48;100.00
59531;BME280;45349;48.692;8.186;2024-01-25T07:35:25;148057.00;;;7.54;100.00
59531;BME280;45349;48.692;8.186;2024-01-25T07:37:51;148070.72;;;7.60;100.00
59531;BME280;45349;48.692;8.186;2024-01-25T07:40:18;148085.63;;;7.66;100.00
59531;BME280;45349;48.692;8.186;2024-01-25T07:42:46;148100.56;;;7.73;100.00
59531;BME280;45349;48.692;8.186;2024-01-25T07:45:13;148101.75;;;7.73;100.00
59531;BME280;45349;48.692;8.186;2024-01-25T07:47:40;148114.19;;;7.78;100.00
59531;BME280;45349;48.692;8.186;2024-01-25T07:50:09;148104.25;;;7.74;100.00
59531;BME280;45349;48.692;8.186;2024-01-25T07:52:36;148095.56;;;7.71;100.00
59531;BME280;45349;48.692;8.186;2024-01-25T07:55:03;148095.56;;;7.71;100.00
59531;BME280;45349;48.692;8.186;2024-01-25T07:57:30;148089.34;;;7.68;100.00
59531;BME280;45349;48.692;8.186;2024-01-25T07:59:57;148090.59;;;7.68;100.00
59531;BME280;45349;48.692;8.186;2024-01-25T08:02:23;148109.22;;;7.76;100.00
59531;BME280;45349;48.692;8.186;2024-01-25T08:04:50;148151.50;;;7.94;100.00
59531;BME280;45349;48.692;8.186;2024-01-25T08:07:18;148145.31;;;7.91;100.00
59531;BME280;45349;48.692;8.186;2024-01-25T08:09:45;148171.41;;;8.02;100.00
59531;BME280;45349;48.692;8.186;2024-01-25T08:12:11;148144.03;;;7.91;100.00
59531;BME280;45349;48.692;8.186;2024-01-25T08:14:51;148104.25;;;7.74;100.00
59531;BME280;45349;48.692;8.186;2024-01-25T08:17:18;148083.16;;;7.65;100.00
59531;BME280;45349;48.692;8.186;2024-01-25T08:19:45;148069.44;;;7.60;100.00
59531;BME280;45349;48.692;8.186;2024-01-25T08:22:12;148064.47;;;7.58;100.00
59531;BME280;45349;48.692;8.186;2024-01-25T08:24:40;148055.78;;;7.54;100.00
59531;BME280;45349;48.692;8.186;2024-01-25T08:27:07;148054.53;;;7.53;100.00
59531;BME280;45349;48.692;8.186;2024-01-25T08:29:33;148058.28;;;7.55;100.00
59531;BME280;45349;48.692;8.186;2024-01-25T08:32:01;148059.50;;;7.56;100.00
59531;BME280;45349;48.692;8.186;2024-01-25T08:34:27;148064.47;;;7.58;100.00
59531;BME280;45349;48.692;8.186;2024-01-25T08:36:54;148069.44;;;7.60;100.00
59531;BME280;45349;48.692;8.186;2024-01-25T08:39:21;148074.41;;;7.62;100.00
59531;BME280;45349;48.692;8.186;2024-01-25T08:41:49;148079.38;;;7.64;100.00
59531;BME280;45349;48.692;8.186;2024-01-25T08:44:15;148093.09;;;7.70;100.00
59531;BME280;45349;48.692;8.186;2024-01-25T08:46:42;148105.53;;;7.75;100.00
59531;BME280;45349;48.692;8.186;2024-01-25T08:49:09;148114.19;;;7.78;100.00
59531;BME280;45349;48.692;8.186;2024-01-25T08:51:37;148134.09;;;7.87;100.00
59531;BME280;45349;48.692;8.186;2024-01-25T08:54:04;148155.19;;;7.95;100.00
59531;BME280;45349;48.692;8.186;2024-01-25T08:56:30;148176.38;;;8.04;100.00
59531;BME280;45349;48.692;8.186;2024-01-25T08:59:01;148204.94;;;8.16;100.00
59531;BME280;45349;48.692;8.186;2024-01-25T09:01:27;148238.53;;;8.30;100.00
59531;BME280;45349;48.692;8.186;2024-01-25T09:03:54;148279.56;;;8.47;100.00
59531;BME280;45349;48.692;8.186;2024-01-25T09:06:22;148323.13;;;8.65;100.00
59531;BME280;45349;48.692;8.186;2024-01-25T09:08:49;148356.72;;;8.79;100.00
59531;BME280;45349;48.692;8.186;2024-01-25T09:11:15;148359.22;;;8.80;100.00
59531;BME280;45349;48.692;8.186;2024-01-25T09:13:41;148390.31;;;8.93;100.00
59531;BME280;45349;48.692;8.186;2024-01-25T09:16:11;148440.06;;;9.14;100.00
59531;BME280;45349;48.692;8.186;2024-01-25T09:18:38;148440.06;;;9.14;100.00
59531;BME280;45349;48.692;8.186;2024-01-25T09:21:05;148453.75;;;9.20;100.00
59531;BME280;45349;48.692;8.186;2024-01-25T09:23:31;148443.78;;;9.15;100.00
59531;BME280;45349;48.692;8.186;2024-01-25T09:25:58;148418.91;;;9.05;100.00
59531;BME280;45349;48.692;8.186;2024-01-25T09:28:28;148406.50;;;9.00;100.00
59531;BME280;45349;48.692;8.186;2024-01-25T09:30:55;148338.06;;;8.71;100.00
59531;BME280;45349;48.692;8.186;2024-01-25T09:33:23;148365.44;;;8.83;100.00
59531;BME280;45349;48.692;8.186;2024-01-25T09:35:49;148374.16;;;8.86;100.00
59531;BME280;45349;48.692;8.186;2024-01-25T09:38:16;148402.75;;;8.98;100.00
59531;BME280;45349;48.692;8.186;2024-01-25T09:40:43;148410.22;;;9.01;100.00
59531;BME280;45349;48.692;8.186;2024-01-25T09:43:11;148468.66;;;9.26;100.00
59531;BME280;45349;48.692;8.186;2024-01-25T09:45:37;148497.31;;;9.38;100.00
59531;BME280;45349;48.692;8.186;2024-01-25T09:48:06;148508.50;;;9.42;100.00
59531;BME280;45349;48.692;8.186;2024-01-25T09:50:34;148528.41;;;9.51;100.00
59531;BME280;45349;48.692;8.186;2024-01-25T09:53:02;148558.28;;;9.63;100.00
59531;BME280;45349;48.692;8.186;2024-01-25T09:55:32;148552.03;;;9.60;98.54
59531;BME280;45349;48.692;8.186;2024-01-25T09:58:04;148615.56;;;9.87;98.89
59531;BME280;45349;48.692;8.186;2024-01-25T10:00:33;148630.50;;;9.93;97.87
59531;BME280;45349;48.692;8.186;2024-01-25T10:02:59;148616.78;;;9.87;97.41
59531;BME280;45349;48.692;8.186;2024-01-25T10:05:26;148601.84;;;9.81;100.00
59531;BME280;45349;48.692;8.186;2024-01-25T10:07:57;148646.66;;;10.00;100.00
59531;BME280;45349;48.692;8.186;2024-01-25T10:10:26;148723.84;;;10.32;98.38
59531;BME280;45349;48.692;8.186;2024-01-25T10:12:55;148721.38;;;10.31;97.29
59531;BME280;45349;48.692;8.186;2024-01-25T10:15:23;148760.00;;;10.47;96.92
59531;BME280;45349;48.692;8.186;2024-01-25T10:17:50;148747.53;;;10.42;98.29
59531;BME280;45349;48.692;8.186;2024-01-25T10:20:17;148712.63;;;10.27;98.61
59531;BME280;45349;48.692;8.186;2024-01-25T10:22:46;148703.94;;;10.24;98.66
59531;BME280;45349;48.692;8.186;2024-01-25T10:25:14;148680.25;;;10.14;98.96
59531;BME280;45349;48.692;8.186;2024-01-25T10:27:41;148670.28;;;10.10;99.40
59531;BME280;45349;48.692;8.186;2024-01-25T10:30:09;148689.00;;;10.17;98.22
59531;BME280;45349;48.692;8.186;2024-01-25T10:32:36;148684.00;;;10.15;99.07
59531;BME280;45349;48.692;8.186;2024-01-25T10:35:04;148656.63;;;10.04;100.00
59531;BME280;45349;48.692;8.186;2024-01-25T10:37:32;148594.38;;;9.78;100.00
59531;BME280;45349;48.692;8.186;2024-01-25T10:40:00;148564.50;;;9.66;100.00
59531;BME280;45349;48.692;8.186;2024-01-25T10:42:28;148598.13;;;9.80;100.00
59531;BME280;45349;48.692;8.186;2024-01-25T10:44:54;148613.06;;;9.86;100.00
59531;BME280;45349;48.692;8.186;2024-01-25T10:47:22;148637.97;;;9.96;100.00
59531;BME280;45349;48.692;8.186;2024-01-25T10:49:50;148656.63;;;10.04;100.00
59531;BME280;45349;48.692;8.186;2024-01-25T10:52:20;148674.03;;;10.11;100.00
59531;BME280;45349;48.692;8.186;2024-01-25T10:54:47;148718.88;;;10.30;100.00
59531;BME280;45349;48.692;8.186;2024-01-25T10:57:13;148718.88;;;10.30;98.07
59531;BME280;45349;48.692;8.186;2024-01-25T10:59:41;148710.13;;;10.26;99.01
59531;BME280;45349;48.692;8.186;2024-01-25T11:02:08;148715.13;;;10.28;98.64
59531;BME280;45349;48.692;8.186;2024-01-25T11:04:35;148755.03;;;10.45;99.09
59531;BME280;45349;48.692;8.186;2024-01-25T11:07:06;148807.34;;;10.67;97.18
59531;BME280;45349;48.692;8.186;2024-01-25T11:09:35;148742.56;;;10.40;96.80
59531;BME280;45349;48.692;8.186;2024-01-25T11:12:11;148828.50;;;10.75;93.09
59531;BME280;45349;48.692;8.186;2024-01-25T11:14:38;148755.03;;;10.45;95.10
59531;BME280;45349;48.692;8.186;2024-01-25T11:17:18;148788.69;;;10.59;96.66
59531;BME280;45349;48.692;8.186;2024-01-25T11:19:46;148812.31;;;10.69;95.99
59531;BME280;45349;48.692;8.186;2024-01-25T11:22:14;148783.69;;;10.57;94.92
59531;BME280;45349;48.692;8.186;2024-01-25T11:24:40;148928.16;;;11.17;91.72
59531;BME280;45349;48.692;8.186;2024-01-25T11:27:08;148908.22;;;11.08;93.46
59531;BME280;45349;48.692;8.186;2024-01-25T11:29:38;148924.41;;;11.15;90.74
59531;BME280;45349;48.692;8.186;2024-01-25T11:32:05;148902.00;;;11.06;91.54
59531;BME280;45349;48.692;8.186;2024-01-25T11:34:33;148811.03;;;10.68;91.93
59531;BME280;45349;48.692;8.186;2024-01-25T11:37:00;148837.22;;;10.79;92.28
59531;BME280;45349;48.692;8.186;2024-01-25T11:39:27;148885.78;;;10.99;92.61
59531;BME280;45349;48.692;8.186;2024-01-25T11:41:53;148885.78;;;10.99;91.47
59531;BME280;45349;48.692;8.186;2024-01-25T11:44:20;148844.69;;;10.82;91.81
59531;BME280;45349;48.692;8.186;2024-01-25T11:46:50;148808.56;;;10.67;95.25
59531;BME280;45349;48.692;8.186;2024-01-25T11:49:17;148766.25;;;10.50;95.62
59531;BME280;45349;48.692;8.186;2024-01-25T11:51:45;148801.09;;;10.64;96.19
59531;BME280;45349;48.692;8.186;2024-01-25T11:54:11;148783.69;;;10.57;97.85
59531;BME280;45349;48.692;8.186;2024-01-25T11:56:47;148824.78;;;10.74;96.51
59531;BME280;45349;48.692;8.186;2024-01-25T11:59:14;148869.63;;;10.92;91.90
59531;BME280;45349;48.692;8.186;2024-01-25T12:01:41;148828.50;;;10.75;95.36
59531;BME280;45349;48.692;8.186;2024-01-25T12:04:08;148822.28;;;10.73;96.07
59531;BME280;45349;48.692;8.186;2024-01-25T12:06:35;148854.66;;;10.86;92.66
59531;BME280;45349;48.692;8.186;2024-01-25T12:09:10;148777.44;;;10.54;94.23
59531;BME280;45349;48.692;8.186;2024-01-25T12:11:38;148807.34;;;10.67;94.82
59531;BME280;45349;48.692;8.186;2024-01-25T12:14:07;148686.50;;;10.16;99.24
59531;BME280;45349;48.692;8.186;2024-01-25T12:16:34;148743.84;;;10.40;99.24
59531;BME280;45349;48.692;8.186;2024-01-25T12:19:00;148816.03;;;10.70;97.18
59531;BME280;45349;48.692;8.186;2024-01-25T12:21:27;148786.19;;;10.58;100.00
59531;BME280;45349;48.692;8.186;2024-01-25T12:23:54;148874.59;;;10.95;96.02
59531;BME280;45349;48.692;8.186;2024-01-25T12:26:22;148854.66;;;10.86;97.02
59531;BME280;45349;48.692;8.186;2024-01-25T12:28:48;148852.19;;;10.85;97.21
59531;BME280;45349;48.692;8.186;2024-01-25T12:31:15;148796.09;;;10.62;98.11
59531;BME280;45349;48.692;8.186;2024-01-25T12:33:42;148863.38;;;10.90;97.12
59531;BME280;45349;48.692;8.186;2024-01-25T12:36:09;148860.88;;;10.89;97.06
59531;BME280;45349;48.692;8.186;2024-01-25T12:38:36;148849.69;;;10.84;99.24
59531;BME280;45349;48.692;8.186;2024-01-25T12:41:02;148786.19;;;10.58;100.00
59531;BME280;45349;48.692;8.186;2024-01-25T12:43:31;148816.03;;;10.70;100.00
59531;BME280;45349;48.692;8.186;2024-01-25T12:45:57;148830.97;;;10.76;96.22
59531;BME280;45349;48.692;8.186;2024-01-25T12:48:28;148783.69;;;10.57;97.31
59531;BME280;45349;48.692;8.186;2024-01-25T12:50:54;148773.72;;;10.53;100.00